Time;durP1;ratioP1;P1;durP2;ratioP2;P2;SDS_P1;SDS_P2;PMS_P1;PMS_P2;Temp;Humidity;BMP_temperature;BMP_pressure;BME280_temperature;BME280_humidity;BME280_pressure;Samples;Min_cycle;Max_cycle;Signal;HPM_P1;HPM_P2
2021/01/31 00:02:14;;;;;;;22.88;21.38;;;3.90;96.30;;;;;;5038246;28;20190;-78
2021/01/31 00:04:46;;;;;;;21.90;20.52;;;3.90;96.50;;;;;;5034666;28;20209;-78
2021/01/31 00:07:14;;;;;;;22.15;20.75;;;3.80;96.50;;;;;;5034261;28;20225;-78
2021/01/31 00:09:40;;;;;;;21.33;19.92;;;3.80;96.90;;;;;;5034169;28;20720;-78
2021/01/31 00:12:07;;;;;;;23.85;22.25;;;3.80;96.90;;;;;;5033738;28;20571;-78
2021/01/31 00:14:33;;;;;;;21.48;19.80;;;3.80;97.50;;;;;;5033970;28;20211;-78
2021/01/31 00:17:00;;;;;;;22.45;20.85;;;3.80;97.20;;;;;;5033366;28;20223;-78
2021/01/31 00:19:26;;;;;;;21.65;20.20;;;3.90;96.80;;;;;;5033771;28;20193;-78
2021/01/31 00:21:57;;;;;;;21.42;19.95;;;3.90;96.60;;;;;;5033760;28;20197;-78
2021/01/31 00:24:24;;;;;;;23.35;21.70;;;3.90;96.40;;;;;;5033863;28;20197;-78
2021/01/31 00:26:50;;;;;;;22.27;20.85;;;3.90;96.40;;;;;;5033342;28;20225;-78
2021/01/31 00:29:18;;;;;;;23.08;21.48;;;3.90;95.90;;;;;;5033728;28;20205;-78
2021/01/31 00:31:46;;;;;;;23.48;21.98;;;3.70;96.60;;;;;;5033257;28;20724;-78
2021/01/31 00:34:13;;;;;;;23.80;21.95;;;3.70;97.00;;;;;;5033343;28;20201;-78
2021/01/31 00:36:39;;;;;;;23.75;22.10;;;3.70;97.10;;;;;;5033218;28;20190;-78
2021/01/31 00:39:07;;;;;;;22.85;21.35;;;3.70;97.20;;;;;;5033512;28;20330;-78
2021/01/31 00:41:35;;;;;;;23.52;21.92;;;3.70;97.30;;;;;;5036582;28;20197;-78
2021/01/31 00:44:02;;;;;;;23.77;22.17;;;3.70;96.90;;;;;;5036308;28;20268;-78
2021/01/31 00:46:33;;;;;;;23.77;22.23;;;3.70;96.80;;;;;;5033863;28;20224;-78
2021/01/31 00:48:59;;;;;;;23.08;21.58;;;3.70;96.90;;;;;;5033529;28;20204;-78
2021/01/31 00:51:26;;;;;;;65.72;26.48;;;3.80;96.50;;;;;;5033183;28;20209;-78
2021/01/31 00:53:52;;;;;;;42.72;25.10;;;3.80;96.60;;;;;;5033483;28;20201;-78
2021/01/31 00:56:18;;;;;;;24.08;22.33;;;3.80;96.70;;;;;;5033087;28;20280;-78
2021/01/31 00:58:46;;;;;;;25.48;23.63;;;3.80;96.60;;;;;;5033197;28;20222;-78
2021/01/31 01:01:13;;;;;;;23.73;22.02;;;3.80;96.10;;;;;;5033161;28;20197;-78
2021/01/31 01:03:39;;;;;;;24.27;22.58;;;3.90;95.70;;;;;;5033119;28;20194;-79
2021/01/31 01:06:06;;;;;;;23.30;21.70;;;3.80;95.60;;;;;;5032796;28;20217;-78
2021/01/31 01:08:32;;;;;;;23.08;21.48;;;3.90;95.60;;;;;;5032963;28;20678;-78
2021/01/31 01:10:59;;;;;;;93.60;30.38;;;3.80;95.40;;;;;;5032726;28;20203;-78
2021/01/31 01:13:25;;;;;;;23.00;21.40;;;3.80;96.00;;;;;;5032958;28;20697;-78
2021/01/31 01:15:53;;;;;;;22.98;21.35;;;3.80;96.30;;;;;;5032668;28;20734;-78
2021/01/31 01:18:20;;;;;;;22.60;20.90;;;4.00;95.70;;;;;;5032886;28;20221;-78
2021/01/31 01:20:46;;;;;;;24.63;22.33;;;4.00;95.40;;;;;;5033004;28;20235;-78
2021/01/31 01:23:13;;;;;;;22.10;20.50;;;4.00;95.40;;;;;;5032950;28;20201;-78
2021/01/31 01:25:39;;;;;;;24.55;22.85;;;3.90;95.10;;;;;;5032559;28;20213;-78
2021/01/31 01:28:06;;;;;;;24.65;22.95;;;3.90;95.70;;;;;;5032904;28;20304;-78
2021/01/31 01:30:33;;;;;;;23.95;22.15;;;3.90;95.80;;;;;;5032680;28;20272;-78
2021/01/31 01:33:01;;;;;;;107.40;28.92;;;4.00;95.80;;;;;;5032694;28;20226;-78
2021/01/31 01:35:28;;;;;;;24.33;22.63;;;4.00;95.30;;;;;;5032692;28;20232;-79
2021/01/31 01:37:55;;;;;;;23.60;21.90;;;4.00;94.90;;;;;;5032758;28;20213;-78
2021/01/31 01:40:24;;;;;;;23.02;21.40;;;4.00;95.20;;;;;;5032757;28;20197;-78
2021/01/31 01:42:51;;;;;;;23.73;22.13;;;4.00;95.20;;;;;;5032888;28;20197;-78
2021/01/31 01:45:19;;;;;;;24.65;22.85;;;4.00;95.20;;;;;;5034843;28;20196;-78
2021/01/31 01:47:47;;;;;;;23.70;22.10;;;3.90;95.30;;;;;;5036613;28;20290;-78
2021/01/31 01:50:25;;;;;;;22.15;20.65;;;3.90;95.40;;;;;;5039329;28;20223;-78
2021/01/31 01:52:54;;;;;;;23.20;21.70;;;4.00;94.70;;;;;;5046419;28;20205;-78
2021/01/31 01:55:23;;;;;;;24.17;22.48;;;4.10;93.70;;;;;;5039113;28;20223;-79
2021/01/31 01:57:54;;;;;;;25.02;23.23;;;4.10;93.30;;;;;;5036556;28;20710;-78
2021/01/31 02:00:21;;;;;;;23.90;22.20;;;3.90;93.50;;;;;;5036657;28;20295;-78
2021/01/31 02:02:55;;;;;;;23.35;21.52;;;3.90;94.30;;;;;;5037369;28;20204;-78
2021/01/31 02:05:23;;;;;;;22.42;21.02;;;4.00;94.50;;;;;;5038057;28;20211;-79
2021/01/31 02:07:49;;;;;;;24.25;22.65;;;4.00;93.40;;;;;;5036873;28;20217;-78
2021/01/31 02:10:18;;;;;;;24.25;22.27;;;3.90;93.30;;;;;;5036120;28;20201;-78
2021/01/31 02:12:45;;;;;;;22.67;21.25;;;3.90;94.50;;;;;;5036700;28;20205;-78
2021/01/31 02:15:14;;;;;;;23.20;21.65;;;3.80;93.80;;;;;;5036827;28;20571;-78
2021/01/31 02:17:59;;;;;;;23.88;22.08;;;3.90;93.10;;;;;;5035911;28;20267;-78
2021/01/31 02:21:04;;;;;;;22.23;20.83;;;3.80;93.60;;;;;;5036294;28;20666;-78
2021/01/31 02:24:02;;;;;;;21.40;20.05;;;3.80;93.10;;;;;;5036231;28;20586;-79
2021/01/31 02:26:46;;;;;;;22.60;21.10;;;4.00;91.90;;;;;;5035651;28;20785;-78
2021/01/31 02:29:40;;;;;;;21.40;20.10;;;3.90;91.60;;;;;;5035966;28;20203;-79
2021/01/31 02:32:34;;;;;;;21.90;20.42;;;3.90;91.60;;;;;;5035855;28;20201;-78
2021/01/31 02:35:06;;;;;;;23.77;22.17;;;3.80;92.10;;;;;;5035643;28;20681;-79
2021/01/31 02:37:39;;;;;;;22.27;20.77;;;3.80;92.30;;;;;;5035602;28;20224;-78
2021/01/31 02:40:10;;;;;;;23.27;21.77;;;3.70;92.20;;;;;;5036016;28;20197;-78
2021/01/31 02:42:41;;;;;;;23.65;22.08;;;3.60;92.40;;;;;;5035682;28;20205;-78
2021/01/31 02:45:20;;;;;;;22.52;21.13;;;3.60;92.50;;;;;;5035566;28;20197;-78
2021/01/31 02:47:54;;;;;;;22.98;21.48;;;3.70;92.00;;;;;;5035421;28;20228;-78
2021/01/31 02:50:25;;;;;;;22.73;21.33;;;3.70;91.50;;;;;;5035501;28;20208;-78
2021/01/31 02:52:57;;;;;;;24.20;22.48;;;3.50;92.30;;;;;;5035477;28;20209;-78
2021/01/31 02:55:29;;;;;;;23.63;22.10;;;3.40;93.10;;;;;;5034870;28;20197;-78
2021/01/31 02:58:04;;;;;;;23.77;22.27;;;3.40;93.20;;;;;;5035234;28;20229;-78
2021/01/31 03:00:36;;;;;;;23.38;21.67;;;3.40;93.10;;;;;;5035229;28;20681;-78
2021/01/31 03:03:07;;;;;;;23.63;21.90;;;3.50;93.30;;;;;;5035384;28;20205;-78
2021/01/31 03:05:38;;;;;;;23.92;22.33;;;3.60;92.70;;;;;;5035010;28;20218;-76
2021/01/31 03:08:11;;;;;;;23.70;22.20;;;3.50;93.10;;;;;;5034914;28;20255;-77
2021/01/31 03:10:40;;;;;;;23.42;21.92;;;3.60;93.00;;;;;;5034791;28;20294;-77
2021/01/31 03:13:12;;;;;;;30.85;21.45;;;3.70;93.00;;;;;;5034919;28;20197;-77
2021/01/31 03:15:45;;;;;;;23.80;22.13;;;3.70;93.80;;;;;;5034702;28;20201;-77
2021/01/31 03:18:17;;;;;;;22.98;21.48;;;3.80;93.70;;;;;;5035115;28;20221;-77
2021/01/31 03:20:52;;;;;;;23.73;22.23;;;3.80;92.70;;;;;;5035125;28;20201;-77
2021/01/31 03:23:26;;;;;;;23.20;21.70;;;3.70;92.50;;;;;;5034701;28;20200;-77
2021/01/31 03:25:59;;;;;;;23.70;22.02;;;3.60;92.50;;;;;;5034554;28;20221;-77
2021/01/31 03:28:25;;;;;;;23.50;21.95;;;3.50;92.90;;;;;;5034562;28;20312;-77
2021/01/31 03:30:53;;;;;;;23.45;21.85;;;3.60;93.00;;;;;;5034629;28;20699;-76
2021/01/31 03:33:25;;;;;;;23.33;21.90;;;3.70;92.10;;;;;;5034486;28;20591;-77
2021/01/31 03:35:54;;;;;;;25.20;23.50;;;3.60;92.40;;;;;;5034417;28;20193;-77
2021/01/31 03:38:24;;;;;;;26.70;23.58;;;3.70;92.60;;;;;;5034354;28;20217;-77
2021/01/31 03:40:55;;;;;;;24.95;23.15;;;3.80;92.50;;;;;;5034552;28;20600;-77
2021/01/31 03:43:22;;;;;;;25.27;23.55;;;3.70;93.30;;;;;;5034533;28;20204;-77
2021/01/31 03:46:01;;;;;;;1999.90;417.13;;;3.60;93.70;;;;;;5034165;28;20213;-77
2021/01/31 03:48:31;;;;;;;24.95;23.17;;;3.60;97.50;;;;;;5034533;28;20300;-77
2021/01/31 03:50:59;;;;;;;24.80;23.20;;;3.70;94.90;;;;;;5034490;28;20274;-77
2021/01/31 03:53:25;;;;;;;23.75;22.15;;;3.60;93.80;;;;;;5034432;28;20207;-77
2021/01/31 03:55:53;;;;;;;24.00;22.40;;;3.60;93.20;;;;;;5033986;28;20201;-77
2021/01/31 03:58:21;;;;;;;23.27;21.75;;;3.60;93.00;;;;;;5034103;28;20221;-77
2021/01/31 04:00:50;;;;;;;23.30;21.88;;;3.60;92.30;;;;;;5034081;28;20208;-77
2021/01/31 04:03:19;;;;;;;24.40;22.70;;;3.60;92.30;;;;;;5034024;28;20197;-77
2021/01/31 04:05:52;;;;;;;25.90;24.08;;;3.70;92.30;;;;;;5033774;28;20261;-77
2021/01/31 04:08:20;;;;;;;25.45;23.65;;;3.90;92.30;;;;;;5032976;28;20213;-77
2021/01/31 04:10:46;;;;;;;24.90;23.10;;;3.80;91.70;;;;;;5033668;28;20197;-77
2021/01/31 04:13:13;;;;;;;26.10;24.20;;;3.90;91.00;;;;;;5033881;28;20270;-77
2021/01/31 04:15:43;;;;;;;25.85;24.05;;;3.90;91.30;;;;;;5033422;28;20197;-77
2021/01/31 04:18:10;;;;;;;26.33;24.58;;;3.80;91.10;;;;;;5033670;28;20699;-77
2021/01/31 04:20:37;;;;;;;24.92;23.20;;;3.70;91.60;;;;;;5033609;28;20689;-77
2021/01/31 04:23:04;;;;;;;25.98;24.23;;;3.70;91.40;;;;;;5033657;28;20201;-77
2021/01/31 04:25:32;;;;;;;24.63;22.92;;;3.70;91.20;;;;;;5033382;28;20287;-77
2021/01/31 04:28:04;;;;;;;53.33;27.85;;;3.70;90.90;;;;;;5033491;28;20228;-77
2021/01/31 04:30:30;;;;;;;25.92;24.02;;;3.70;91.50;;;;;;5033649;28;20208;-77
2021/01/31 04:32:57;;;;;;;25.42;23.52;;;3.70;91.50;;;;;;5033602;28;20201;-77
2021/01/31 04:35:23;;;;;;;26.10;24.30;;;3.60;91.90;;;;;;5033632;28;20205;-77
2021/01/31 04:37:49;;;;;;;25.48;23.55;;;3.60;91.40;;;;;;5033128;28;20221;-77
2021/01/31 04:40:17;;;;;;;25.33;23.52;;;3.70;91.00;;;;;;5033249;28;20223;-77
2021/01/31 04:42:46;;;;;;;25.52;23.60;;;3.70;90.90;;;;;;5033322;28;20217;-77
2021/01/31 04:45:13;;;;;;;24.75;23.15;;;3.70;90.50;;;;;;5037409;28;20201;-77
2021/01/31 04:47:50;;;;;;;25.17;23.33;;;3.60;90.90;;;;;;5033448;28;20248;-77
2021/01/31 04:50:22;;;;;;;24.33;22.58;;;3.60;90.80;;;;;;5033552;28;20193;-77
2021/01/31 04:53:28;;;;;;;25.00;23.20;;;3.60;90.80;;;;;;5033069;28;20750;-77
2021/01/31 04:56:11;;;;;;;24.55;22.95;;;3.60;90.40;;;;;;4972235;28;20199;-77
2021/01/31 04:58:44;;;;;;;24.98;23.15;;;3.60;90.60;;;;;;5029375;28;20239;-77
2021/01/31 05:01:16;;;;;;;25.00;23.17;;;3.50;90.80;;;;;;5033027;28;20197;-77
2021/01/31 05:03:46;;;;;;;25.20;23.40;;;3.50;90.80;;;;;;5033152;28;20201;-77
2021/01/31 05:06:15;;;;;;;27.52;25.58;;;3.40;90.90;;;;;;5032795;28;20221;-77
2021/01/31 05:08:42;;;;;;;26.08;24.08;;;3.40;90.80;;;;;;5032846;28;20773;-77
2021/01/31 05:11:15;;;;;;;26.98;25.15;;;3.40;91.00;;;;;;5032816;28;20197;-77
2021/01/31 05:13:50;;;;;;;26.50;24.70;;;3.30;91.50;;;;;;5032771;28;20202;-77
2021/01/31 05:16:17;;;;;;;26.45;24.65;;;3.30;92.00;;;;;;5032634;28;20672;-77
2021/01/31 05:18:46;;;;;;;25.52;23.83;;;3.50;92.10;;;;;;5032546;28;20217;-77
2021/01/31 05:21:17;;;;;;;25.75;23.95;;;3.50;91.20;;;;;;5032843;28;20224;-77
2021/01/31 05:23:51;;;;;;;26.35;24.45;;;3.60;91.60;;;;;;5032807;28;20205;-77
2021/01/31 05:26:19;;;;;;;25.05;23.35;;;3.70;90.70;;;;;;5032481;28;20783;-77
2021/01/31 05:28:54;;;;;;;26.20;24.30;;;3.60;91.80;;;;;;5032900;28;20228;-77
2021/01/31 05:31:24;;;;;;;25.05;23.33;;;3.50;92.20;;;;;;5032887;28;20608;-77
2021/01/31 05:33:53;;;;;;;25.00;23.20;;;3.40;92.10;;;;;;5032877;28;20197;-77
2021/01/31 05:36:22;;;;;;;26.33;24.48;;;3.50;92.20;;;;;;5032441;28;20197;-77
2021/01/31 05:38:50;;;;;;;26.58;24.77;;;3.50;92.20;;;;;;5032536;28;20218;-77
2021/01/31 05:41:47;;;;;;;26.25;24.38;;;3.60;91.40;;;;;;5032610;28;20198;-77
2021/01/31 05:44:26;;;;;;;47.97;26.70;;;3.60;92.30;;;;;;5032766;28;20209;-77
2021/01/31 05:46:54;;;;;;;25.17;23.45;;;3.60;93.60;;;;;;5032295;28;20683;-77
2021/01/31 05:49:33;;;;;;;24.98;23.27;;;3.80;91.00;;;;;;5032632;28;20674;-77
2021/01/31 05:52:00;;;;;;;27.17;25.23;;;3.60;90.80;;;;;;5032382;28;20211;-77
2021/01/31 05:54:29;;;;;;;26.27;24.38;;;3.60;91.00;;;;;;5032478;28;20201;-77
2021/01/31 05:56:56;;;;;;;26.10;24.20;;;3.60;91.10;;;;;;5032308;28;20271;-77
2021/01/31 05:59:24;;;;;;;25.70;23.90;;;3.60;90.90;;;;;;5032335;28;20197;-77
2021/01/31 06:01:53;;;;;;;26.35;24.40;;;3.60;90.60;;;;;;5032442;28;20205;-77
2021/01/31 06:04:22;;;;;;;26.52;24.63;;;3.60;90.40;;;;;;5032438;28;20566;-77
2021/01/31 06:06:49;;;;;;;26.70;24.80;;;3.40;90.90;;;;;;5032240;28;20227;-77
2021/01/31 06:09:18;;;;;;;26.17;24.38;;;3.40;92.50;;;;;;5032488;28;20201;-77
2021/01/31 06:11:45;;;;;;;25.00;23.38;;;3.40;92.40;;;;;;5032746;28;20197;-77
2021/01/31 06:14:30;;;;;;;26.60;24.80;;;3.60;90.70;;;;;;5032770;28;20201;-77
2021/01/31 06:17:01;;;;;;;28.55;26.35;;;3.60;90.30;;;;;;5031951;28;20213;-77
2021/01/31 06:19:31;;;;;;;27.02;25.13;;;3.50;91.80;;;;;;5032485;28;20193;-77
2021/01/31 06:21:58;;;;;;;25.80;24.00;;;3.60;91.50;;;;;;5032504;28;20223;-77
2021/01/31 06:24:27;;;;;;;26.38;24.63;;;3.60;90.50;;;;;;5032370;28;20201;-77
2021/01/31 06:26:55;;;;;;;27.52;25.52;;;3.60;90.30;;;;;;5031946;28;20221;-77
2021/01/31 06:29:36;;;;;;;25.30;23.63;;;3.60;90.50;;;;;;5032091;28;20609;-77
2021/01/31 06:32:07;;;;;;;25.60;23.80;;;3.60;90.60;;;;;;5035340;28;20197;-77
2021/01/31 06:34:34;;;;;;;27.70;25.70;;;3.50;91.10;;;;;;5035813;28;20259;-77
2021/01/31 06:37:17;;;;;;;26.30;23.63;;;3.40;91.40;;;;;;5035410;28;20305;-77
2021/01/31 06:39:59;;;;;;;26.38;24.58;;;3.60;90.70;;;;;;5035654;28;20197;-77
2021/01/31 06:42:38;;;;;;;25.90;24.02;;;3.60;90.10;;;;;;5035702;28;20205;-77
2021/01/31 06:45:12;;;;;;;25.58;23.88;;;3.50;90.50;;;;;;5035485;28;20197;-77
2021/01/31 06:48:01;;;;;;;25.25;23.55;;;3.50;91.00;;;;;;5035261;28;20300;-77
2021/01/31 06:50:35;;;;;;;24.00;22.42;;;3.40;91.30;;;;;;5035550;28;20367;-77
2021/01/31 06:53:15;;;;;;;26.27;24.38;;;3.50;91.20;;;;;;5035422;28;20197;-77
2021/01/31 06:56:07;;;;;;;27.13;25.33;;;3.50;90.90;;;;;;5035146;28;20197;-77
2021/01/31 06:59:06;;;;;;;25.83;24.13;;;3.50;91.10;;;;;;5035649;28;20225;-77
2021/01/31 07:01:55;;;;;;;25.60;24.00;;;3.60;91.30;;;;;;5037470;28;20710;-77
2021/01/31 07:04:51;;;;;;;26.90;25.00;;;3.70;91.00;;;;;;5036567;28;20206;-77
2021/01/31 07:07:58;;;;;;;25.75;23.85;;;3.70;90.30;;;;;;5035090;28;20227;-77
2021/01/31 07:10:54;;;;;;;27.05;25.05;;;3.70;90.40;;;;;;5035014;28;20208;-77
2021/01/31 07:13:47;;;;;;;27.02;25.13;;;3.70;89.70;;;;;;5035204;28;20303;-77
2021/01/31 07:16:28;;;;;;;27.08;24.80;;;3.60;90.30;;;;;;5034648;28;20198;-77
2021/01/31 07:19:00;;;;;;;28.08;25.85;;;3.60;90.60;;;;;;5034907;28;20650;-77
2021/01/31 07:21:31;;;;;;;26.48;24.58;;;3.70;89.70;;;;;;5034863;28;20200;-77
2021/01/31 07:24:02;;;;;;;25.05;23.33;;;3.60;89.90;;;;;;5035071;28;20204;-77
2021/01/31 07:26:34;;;;;;;27.35;25.55;;;3.60;90.00;;;;;;5034690;28;20691;-77
2021/01/31 07:29:05;;;;;;;26.25;24.45;;;3.60;90.70;;;;;;5034922;28;20658;-77
2021/01/31 07:31:45;;;;;;;28.58;26.48;;;3.70;89.40;;;;;;5034898;28;20202;-77
2021/01/31 07:34:24;;;;;;;27.90;26.00;;;3.60;90.00;;;;;;5036472;28;20205;-78
2021/01/31 07:37:10;;;;;;;25.45;23.75;;;3.60;89.80;;;;;;5039430;28;20224;-77
2021/01/31 07:39:42;;;;;;;27.30;25.35;;;3.70;89.00;;;;;;5036652;28;20205;-77
2021/01/31 07:42:10;;;;;;;27.83;25.83;;;3.60;89.40;;;;;;5039076;28;20659;-77
2021/01/31 07:44:39;;;;;;;27.52;25.75;;;3.60;89.60;;;;;;5034740;28;20198;-77
2021/01/31 07:47:06;;;;;;;28.13;25.80;;;3.70;89.00;;;;;;5034167;28;20221;-77
2021/01/31 07:50:12;;;;;;;26.23;24.33;;;3.80;88.60;;;;;;5034645;28;20274;-77
2021/01/31 07:52:56;;;;;;;26.60;24.75;;;3.60;89.20;;;;;;5018016;28;20215;-77
2021/01/31 07:55:30;;;;;;;26.05;24.30;;;3.70;89.30;;;;;;5034969;28;20204;-77
2021/01/31 07:58:02;;;;;;;26.58;24.73;;;3.80;88.90;;;;;;5034156;28;20289;-77
2021/01/31 08:00:37;;;;;;;26.50;24.70;;;3.90;88.30;;;;;;5034327;28;20659;-77
2021/01/31 08:03:24;;;;;;;25.35;23.63;;;3.90;88.10;;;;;;5034350;28;20207;-77
2021/01/31 08:05:59;;;;;;;26.23;24.33;;;3.80;88.10;;;;;;5033908;28;20204;-77
2021/01/31 08:08:46;;;;;;;25.52;23.52;;;3.80;89.00;;;;;;5034161;28;20221;-77
2021/01/31 08:11:53;;;;;;;25.05;23.35;;;3.80;89.60;;;;;;5033928;28;20197;-77
2021/01/31 08:14:57;;;;;;;1475.18;192.00;;;4.00;89.60;;;;;;5034113;28;20276;-77
2021/01/31 08:17:47;;;;;;;27.80;25.30;;;4.00;91.60;;;;;;5033482;28;20217;-77
2021/01/31 08:20:42;;;;;;;29.23;26.95;;;4.10;90.10;;;;;;5033867;28;20202;-77
2021/01/31 08:23:45;;;;;;;26.58;24.73;;;4.20;89.20;;;;;;5028226;28;20201;-77
2021/01/31 08:26:12;;;;;;;26.05;24.35;;;4.20;88.90;;;;;;5033530;28;20716;-77
2021/01/31 08:28:54;;;;;;;26.30;24.35;;;4.30;87.30;;;;;;5033619;28;20225;-77
2021/01/31 08:31:20;;;;;;;26.63;24.73;;;4.20;88.00;;;;;;5033518;28;20207;-77
2021/01/31 08:34:00;;;;;;;27.42;25.52;;;4.20;88.20;;;;;;5033617;28;20197;-77
2021/01/31 08:36:29;;;;;;;25.70;23.80;;;4.20;89.10;;;;;;5033442;28;20197;-77
2021/01/31 08:38:58;;;;;;;155.95;32.22;;;4.20;89.80;;;;;;5033783;28;20197;-77
2021/01/31 08:41:42;;;;;;;33.97;31.17;;;4.10;92.30;;;;;;5033859;28;20197;-77
2021/01/31 08:44:39;;;;;;;31.10;26.52;;;4.20;92.30;;;;;;5033638;28;20563;-77
2021/01/31 08:47:07;;;;;;;26.00;24.20;;;4.30;90.50;;;;;;5033043;28;20225;-77
2021/01/31 08:49:34;;;;;;;25.30;23.60;;;4.30;90.30;;;;;;5033291;28;20667;-77
2021/01/31 08:52:03;;;;;;;26.67;24.83;;;4.40;89.40;;;;;;5033135;28;20339;-77
2021/01/31 08:54:30;;;;;;;25.88;24.13;;;4.40;88.60;;;;;;5032864;28;20296;-78
2021/01/31 08:56:58;;;;;;;29.20;26.10;;;4.50;88.40;;;;;;5033011;28;20219;-77
2021/01/31 08:59:28;;;;;;;26.52;24.58;;;4.60;89.60;;;;;;5033105;28;20200;-77
2021/01/31 09:02:11;;;;;;;78.38;28.30;;;4.60;90.10;;;;;;5033195;28;20607;-77
2021/01/31 09:04:39;;;;;;;25.83;24.00;;;4.70;89.40;;;;;;5033123;28;20616;-77
2021/01/31 09:07:06;;;;;;;24.77;23.00;;;4.80;90.40;;;;;;5032703;28;20733;-77
2021/01/31 09:09:36;;;;;;;26.33;24.52;;;4.80;91.80;;;;;;5032991;28;20248;-77
2021/01/31 09:12:06;;;;;;;25.02;23.33;;;4.80;90.30;;;;;;5032691;28;20208;-77
2021/01/31 09:14:34;;;;;;;24.45;22.75;;;5.00;89.00;;;;;;5033141;28;20199;-77
2021/01/31 09:17:02;;;;;;;27.70;25.90;;;5.00;87.70;;;;;;5032502;28;20216;-77
2021/01/31 09:19:29;;;;;;;26.23;24.63;;;5.00;86.90;;;;;;5032815;28;20659;-77
2021/01/31 09:22:01;;;;;;;24.73;23.23;;;5.00;86.70;;;;;;5032926;28;20258;-77
2021/01/31 09:24:31;;;;;;;28.85;27.00;;;5.20;87.50;;;;;;5032720;28;20204;-77
2021/01/31 09:26:59;;;;;;;25.95;24.25;;;5.10;88.00;;;;;;5032393;28;20267;-77
2021/01/31 09:29:29;;;;;;;28.38;26.65;;;5.20;87.70;;;;;;5032754;28;20290;-77
2021/01/31 09:31:58;;;;;;;25.20;23.50;;;5.30;84.50;;;;;;5032648;28;20247;-77
2021/01/31 09:34:26;;;;;;;26.90;25.08;;;5.20;84.40;;;;;;5032959;28;20210;-77
2021/01/31 09:37:07;;;;;;;27.40;25.60;;;5.20;84.50;;;;;;5032682;28;20227;-77
2021/01/31 09:39:35;;;;;;;25.70;24.10;;;5.00;84.70;;;;;;5032842;28;20199;-77
2021/01/31 09:42:04;;;;;;;27.40;25.65;;;5.10;85.10;;;;;;5032802;28;20661;-78
2021/01/31 09:44:32;;;;;;;26.52;24.85;;;5.20;84.50;;;;;;5032725;28;20205;-77
2021/01/31 09:46:59;;;;;;;26.63;24.92;;;5.20;84.70;;;;;;5033065;28;20285;-77
2021/01/31 09:49:27;;;;;;;26.55;24.73;;;5.20;86.20;;;;;;5037729;28;20201;-77
2021/01/31 09:52:04;;;;;;;27.50;25.67;;;5.20;86.10;;;;;;5032205;28;20304;-77
2021/01/31 09:54:32;;;;;;;27.75;25.88;;;5.20;84.50;;;;;;5032866;28;20623;-77
2021/01/31 09:57:01;;;;;;;26.33;24.63;;;5.40;83.60;;;;;;5031922;28;20233;-77
2021/01/31 09:59:30;;;;;;;26.45;24.75;;;5.30;85.70;;;;;;5032627;28;20197;-77
2021/01/31 10:02:03;;;;;;;26.98;25.25;;;5.30;84.50;;;;;;5032566;28;20197;-77
2021/01/31 10:04:31;;;;;;;26.60;24.70;;;5.50;83.20;;;;;;5032601;28;20616;-77
2021/01/31 10:07:05;;;;;;;27.50;25.70;;;5.50;83.20;;;;;;5035439;28;20364;-77
2021/01/31 10:09:33;;;;;;;26.48;24.60;;;5.40;84.00;;;;;;5037730;28;20201;-77
2021/01/31 10:12:15;;;;;;;25.88;23.90;;;5.30;84.40;;;;;;5037361;28;20204;-77
2021/01/31 10:14:44;;;;;;;26.98;25.00;;;5.30;85.70;;;;;;5036616;28;20208;-77
2021/01/31 10:17:16;;;;;;;28.83;26.92;;;5.20;84.60;;;;;;5035937;28;20258;-77
2021/01/31 10:19:42;;;;;;;25.70;24.00;;;5.30;85.70;;;;;;5036344;28;20205;-77
2021/01/31 10:22:14;;;;;;;26.90;25.10;;;5.50;85.00;;;;;;5036294;28;20295;-77
2021/01/31 10:24:47;;;;;;;26.80;25.00;;;5.60;84.40;;;;;;5036335;28;20281;-77
2021/01/31 10:27:25;;;;;;;26.88;25.17;;;5.70;84.30;;;;;;5041810;28;20224;-77
2021/01/31 10:29:54;;;;;;;28.23;26.13;;;6.00;83.20;;;;;;5037854;28;20219;-77
2021/01/31 10:32:27;;;;;;;27.08;25.27;;;6.00;86.40;;;;;;5036251;28;20201;-77
2021/01/31 10:34:56;;;;;;;27.52;25.67;;;6.20;85.40;;;;;;5036492;28;20657;-78
2021/01/31 10:37:32;;;;;;;28.65;26.65;;;6.40;82.60;;;;;;5035737;28;20213;-77
2021/01/31 10:39:59;;;;;;;28.17;26.23;;;6.70;83.60;;;;;;5036020;28;20197;-78
2021/01/31 10:42:25;;;;;;;28.63;26.63;;;6.70;81.40;;;;;;5035951;28;20283;-78
2021/01/31 10:44:52;;;;;;;27.45;25.65;;;6.80;81.40;;;;;;5035616;28;20197;-78
2021/01/31 10:47:19;;;;;;;27.63;25.88;;;6.80;83.20;;;;;;5035476;28;20226;-78
2021/01/31 10:49:45;;;;;;;29.38;27.58;;;6.90;81.90;;;;;;5035675;28;20670;-77
2021/01/31 10:52:12;;;;;;;30.67;28.52;;;7.10;79.60;;;;;;5035844;28;20210;-78
2021/01/31 10:54:39;;;;;;;28.15;26.35;;;7.00;79.20;;;;;;5035413;28;20198;-77
2021/01/31 10:57:05;;;;;;;30.20;28.20;;;6.90;79.20;;;;;;5035309;28;20694;-77
2021/01/31 10:59:31;;;;;;;30.33;28.23;;;6.70;80.50;;;;;;5035421;28;20592;-78
2021/01/31 11:01:59;;;;;;;30.20;28.00;;;6.60;82.70;;;;;;5035569;28;20197;-77
2021/01/31 11:04:25;;;;;;;31.50;29.15;;;6.60;82.10;;;;;;5035314;28;20699;-77
2021/01/31 11:06:51;;;;;;;30.30;28.20;;;6.90;80.80;;;;;;5035150;28;20642;-78
2021/01/31 11:09:18;;;;;;;37.58;34.65;;;6.90;79.50;;;;;;5035280;28;20732;-77
2021/01/31 11:11:44;;;;;;;30.52;28.38;;;6.80;80.20;;;;;;5034706;28;20566;-77
2021/01/31 11:14:11;;;;;;;29.52;27.58;;;6.80;80.30;;;;;;5035568;28;20197;-77
2021/01/31 11:16:37;;;;;;;33.17;30.38;;;6.70;79.70;;;;;;5034456;28;20543;-77
2021/01/31 11:19:05;;;;;;;31.02;28.60;;;6.70;81.60;;;;;;5035314;28;20694;-77
2021/01/31 11:21:31;;;;;;;30.90;28.77;;;7.10;80.70;;;;;;5035369;28;20242;-78
2021/01/31 11:23:58;;;;;;;30.02;27.90;;;7.30;79.60;;;;;;5035385;28;20284;-77
2021/01/31 11:26:25;;;;;;;30.70;28.55;;;7.30;77.90;;;;;;5035150;28;20217;-77
2021/01/31 11:28:52;;;;;;;29.23;26.95;;;7.10;79.00;;;;;;5037648;28;20300;-77
2021/01/31 11:31:18;;;;;;;29.25;27.25;;;7.10;78.00;;;;;;5040800;28;20284;-77
2021/01/31 11:33:45;;;;;;;28.35;26.40;;;7.10;77.70;;;;;;5038124;28;20666;-77
2021/01/31 11:36:12;;;;;;;28.95;26.95;;;7.10;79.50;;;;;;5035349;28;20204;-77
2021/01/31 11:38:39;;;;;;;31.30;29.20;;;7.10;80.30;;;;;;5035163;28;20217;-77
2021/01/31 11:41:05;;;;;;;29.60;27.70;;;7.30;79.90;;;;;;5034813;28;20601;-78
2021/01/31 11:43:32;;;;;;;29.42;27.35;;;7.50;76.70;;;;;;5036151;28;20200;-77
2021/01/31 11:45:58;;;;;;;29.38;27.40;;;7.50;77.20;;;;;;5036850;28;20202;-78
2021/01/31 11:48:24;;;;;;;29.20;27.30;;;7.50;77.50;;;;;;5034829;28;20249;-78
2021/01/31 11:50:51;;;;;;;31.65;29.55;;;7.50;76.90;;;;;;5034669;28;20198;-77
2021/01/31 11:53:18;;;;;;;30.92;28.98;;;7.80;77.50;;;;;;5034689;28;20201;-78
2021/01/31 11:55:44;;;;;;;31.00;28.85;;;8.00;76.60;;;;;;5034044;28;20206;-78
2021/01/31 11:58:11;;;;;;;29.35;27.50;;;8.00;76.40;;;;;;5034360;28;20213;-77
2021/01/31 12:00:37;;;;;;;31.27;29.27;;;7.80;77.80;;;;;;5034258;28;20291;-77
2021/01/31 12:03:05;;;;;;;32.88;30.70;;;7.70;79.60;;;;;;5034390;28;20197;-78
2021/01/31 12:05:32;;;;;;;31.35;29.25;;;7.70;77.80;;;;;;5034160;28;20205;-77
2021/01/31 12:07:58;;;;;;;30.55;28.65;;;7.60;76.60;;;;;;5033983;28;20236;-78
2021/01/31 12:10:26;;;;;;;29.50;27.65;;;7.60;76.20;;;;;;5033898;28;20640;-79
2021/01/31 12:12:52;;;;;;;30.35;28.35;;;7.60;75.90;;;;;;5033927;28;20283;-78
2021/01/31 12:15:19;;;;;;;29.35;27.52;;;7.70;77.30;;;;;;5033978;28;20198;-78
2021/01/31 12:17:46;;;;;;;30.33;28.35;;;7.60;76.60;;;;;;5033689;28;20221;-77
2021/01/31 12:20:14;;;;;;;32.65;29.77;;;7.50;77.20;;;;;;5034076;28;20260;-78
2021/01/31 12:22:41;;;;;;;37.13;30.00;;;7.30;79.00;;;;;;5033734;28;20197;-77
2021/01/31 12:25:10;;;;;;;29.67;27.77;;;7.40;79.50;;;;;;5033923;28;20201;-78
2021/01/31 12:27:37;;;;;;;29.30;27.40;;;7.40;76.80;;;;;;5033128;28;20690;-78
2021/01/31 12:30:04;;;;;;;28.95;27.10;;;7.60;75.80;;;;;;5033429;28;20231;-78
2021/01/31 12:32:31;;;;;;;28.75;26.85;;;7.50;76.50;;;;;;5033641;28;20215;-78
2021/01/31 12:34:57;;;;;;;29.95;27.95;;;7.50;76.80;;;;;;5033743;28;20197;-78
2021/01/31 12:37:23;;;;;;;28.88;26.88;;;7.80;76.70;;;;;;5033317;28;20221;-78
2021/01/31 12:39:50;;;;;;;29.05;27.23;;;7.90;76.10;;;;;;5033613;28;20660;-78
2021/01/31 12:42:16;;;;;;;28.80;26.90;;;8.00;76.00;;;;;;5033755;28;20193;-78
2021/01/31 12:44:44;;;;;;;29.10;27.15;;;8.00;78.40;;;;;;5033603;28;20197;-78
2021/01/31 12:47:12;;;;;;;29.58;27.38;;;8.10;76.80;;;;;;5033382;28;20591;-77
2021/01/31 12:49:38;;;;;;;30.42;28.40;;;8.10;75.40;;;;;;5033511;28;20201;-78
2021/01/31 12:52:05;;;;;;;30.80;28.60;;;7.80;75.90;;;;;;5033332;28;20223;-78
2021/01/31 12:54:31;;;;;;;33.03;30.83;;;7.60;76.30;;;;;;5033558;28;20200;-77
2021/01/31 12:56:58;;;;;;;30.92;28.85;;;7.70;76.90;;;;;;5033074;28;20209;-78
2021/01/31 12:59:24;;;;;;;30.15;28.25;;;7.80;77.00;;;;;;5033578;28;20201;-78